Etusivu
METAR-TAF:

METAR-TAF

Lentoasemat :

Cannes, Ranska

Leveyspiiri: 43-33N, Pituuspiiri: 006-57E, korkeus merenpinnasta: 3 m

Tämänhetkinen sää

Tämä raportti tehtiin 11 minuuttia sitten, kello 11.30 UTC
Tuuli 9 kn eri suunnista
Lämpötila 18°C
Kosteus 26%
Ilmanpaine 1017 hPa
Näkyvyys 10 km tai enemmän
ei pilviä alle 1500 m:ssä eikä cumulonimbus-pilviä

METAR: LFMD 101130Z AUTO VRB09KT CAVOK 18/M02 Q1017 NOSIG

Aika: 12:41 (11:41 UTC)

Sääennuste

Tämä raportti tehtiin 3 tuntia ja 41 minuuttia sitten, kello 08.00 UTC
Ennuste voimassa 10. päivästä klo 09 UTC - 11. päivään klo 09 UTC
Tuuli 5 kn luoteesta
Näkyvyys 10 km tai enemmän
ei pilviä alle 1500 m:ssä eikä cumulonimbus-pilviä

TAF: LFMD 100800Z 1009/1109 31005KT CAVOK

Säähavainnot ja -ennusteet yli 4000 lentoasemalta (METAR- ja TAF-raportit).

Käytössä olevat sääasemat on merkitty karttaan keltaisilla ja punaisilla pisteillä.

Aseta hiiri pisteen päälle nähdäksesi sääaseman nimen.

Klikkaa sitten nähdäksesi säähavainnot ja -ennusteet.

Kartan vaihtaminen: klikkaa mustalla rastilla varustettuja vihreitä pisteitä, niin voit zoomata sisään; viivalla varustettua vihreää pistettä, niin voit zoomata ulos tai vihreitä nuolia, niin pääset viereisille kartoille.


METAR-TAF: